createdAt,value
2018-04-02T00:00:25.361Z,97863.81
2018-04-02T00:02:53.605Z,97860.52
2018-04-02T00:05:21.861Z,97852.57
2018-04-02T00:07:50.107Z,97857.16
2018-04-02T00:10:18.358Z,97857.13
2018-04-02T00:12:46.605Z,97859.12
2018-04-02T00:15:14.880Z,97861.59
2018-04-02T00:17:43.189Z,97857.77
2018-04-02T00:20:11.449Z,97855.67
2018-04-02T00:22:39.687Z,97861.07
2018-04-02T00:25:07.958Z,97857.61
2018-04-02T00:27:36.216Z,97849.71
2018-04-02T00:30:05.225Z,97855.57
2018-04-02T00:32:33.487Z,97861.81
2018-04-02T00:35:01.732Z,97857.25
2018-04-02T00:37:29.990Z,97859.38
2018-04-02T00:39:58.242Z,97861.05
2018-04-02T00:42:26.495Z,97860.17
2018-04-02T00:44:55.515Z,97852.64
2018-04-02T00:47:23.774Z,97858.13
2018-04-02T00:49:52.017Z,97854.43
2018-04-02T00:52:20.279Z,97853.63
2018-04-02T00:54:48.522Z,97856.52
2018-04-02T00:57:16.778Z,97858.93
2018-04-02T00:59:45.024Z,97859.02
2018-04-02T01:02:13.349Z,97862.73
2018-04-02T01:04:41.596Z,97865.98
2018-04-02T01:07:10.622Z,97865.55
2018-04-02T01:09:38.875Z,97860.95
2018-04-02T01:12:07.125Z,97863.47
2018-04-02T01:14:36.145Z,97863.09
2018-04-02T01:17:04.403Z,97862.69
2018-04-02T01:19:33.414Z,97864.35
2018-04-02T01:22:01.667Z,97866.81
2018-04-02T01:24:30.683Z,97859.34
2018-04-02T01:26:58.938Z,97860.02
2018-04-02T01:29:27.951Z,97852.13
2018-04-02T01:31:56.226Z,97856.26
2018-04-02T01:34:24.485Z,97859.50
2018-04-02T01:36:53.504Z,97855.74
2018-04-02T01:39:21.761Z,97859.83
2018-04-02T01:41:50.021Z,97854.91
2018-04-02T01:44:19.042Z,97851.09
2018-04-02T01:46:47.294Z,97856.89
2018-04-02T01:49:16.322Z,97850.63
2018-04-02T01:51:44.568Z,97855.53
2018-04-02T01:54:13.589Z,97857.20
2018-04-02T01:56:42.770Z,97853.81
2018-04-02T01:59:11.026Z,97847.91
2018-04-02T02:01:40.050Z,97843.25
2018-04-02T02:04:08.323Z,97851.14
2018-04-02T02:06:36.565Z,97846.77
2018-04-02T02:09:06.508Z,97852.08
2018-04-02T02:11:34.765Z,97850.66
2018-04-02T02:14:03.799Z,97847.66
2018-04-02T02:16:32.061Z,97846.94
2018-04-02T02:19:00.325Z,97842.55
2018-04-02T02:21:28.579Z,97845.81
2018-04-02T02:23:57.608Z,97848.38
2018-04-02T02:26:25.861Z,97845.77
2018-04-02T02:28:54.886Z,97839.58
2018-04-02T02:31:23.132Z,97844.47
2018-04-02T02:33:51.390Z,97834.69
2018-04-02T02:36:20.406Z,97838.08
2018-04-02T02:38:48.659Z,97837.72
2018-04-02T02:41:17.682Z,97834.99
2018-04-02T02:43:45.938Z,97834.67
2018-04-02T02:46:14.963Z,97830.77
2018-04-02T02:48:43.210Z,97835.81
2018-04-02T02:51:12.227Z,97834.09
2018-04-02T02:53:40.477Z,97833.45
2018-04-02T02:56:08.755Z,97826.94
2018-04-02T02:58:37.008Z,97828.14
2018-04-02T03:01:06.040Z,97827.70
2018-04-02T03:03:34.298Z,97822.05
2018-04-02T03:06:02.562Z,97827.19
2018-04-02T03:08:30.817Z,97823.01
2018-04-02T03:11:00.578Z,97820.98
2018-04-02T03:13:28.834Z,97823.89
2018-04-02T03:15:57.122Z,97825.20
2018-04-02T03:18:25.376Z,97823.78
2018-04-02T03:20:54.390Z,97820.72
2018-04-02T03:23:22.650Z,97825.13
2018-04-02T03:25:51.675Z,97819.78
2018-04-02T03:28:19.938Z,97815.66
2018-04-02T03:30:48.186Z,97821.15
2018-04-02T03:33:17.201Z,97812.50
2018-04-02T03:35:45.453Z,97820.91
2018-04-02T03:38:14.481Z,97811.67
2018-04-02T03:40:42.731Z,97811.59
2018-04-02T03:43:11.756Z,97818.99
2018-04-02T03:45:40.007Z,97820.14
2018-04-02T03:48:08.264Z,97822.58
2018-04-02T03:50:37.277Z,97815.65
2018-04-02T03:53:05.541Z,97820.67
2018-04-02T03:55:34.550Z,97815.54
2018-04-02T03:58:02.813Z,97815.50
2018-04-02T04:00:31.839Z,97812.31
2018-04-02T04:03:00.101Z,97815.38
2018-04-02T04:05:28.384Z,97807.73
2018-04-02T04:07:56.646Z,97804.05
2018-04-02T04:10:24.894Z,97799.38
2018-04-02T04:12:53.914Z,97806.00
2018-04-02T04:15:22.179Z,97805.58
2018-04-02T04:17:51.199Z,97804.20
2018-04-02T04:20:19.453Z,97806.70
2018-04-02T04:22:47.711Z,97806.59
2018-04-02T04:25:15.963Z,97804.39
2018-04-02T04:27:44.213Z,97811.23
2018-04-02T04:30:12.479Z,97813.31
2018-04-02T04:32:40.729Z,97813.37
2018-04-02T04:35:09.753Z,97807.08
2018-04-02T04:37:38.005Z,97803.78
2018-04-02T04:40:06.261Z,97805.63
2018-04-02T04:42:35.287Z,97804.80
2018-04-02T04:45:03.538Z,97802.77
2018-04-02T04:47:31.782Z,97800.92
2018-04-02T04:50:00.047Z,97807.17
2018-04-02T04:52:28.294Z,97805.91
2018-04-02T04:54:56.565Z,97800.78
2018-04-02T04:57:24.822Z,97798.29
2018-04-02T04:59:53.078Z,97797.75
2018-04-02T05:02:22.103Z,97796.61
2018-04-02T05:04:50.357Z,97792.57
2018-04-02T05:07:19.385Z,97796.34
2018-04-02T05:09:47.634Z,97792.50
2018-04-02T05:12:15.894Z,97792.63
2018-04-02T05:14:44.910Z,97795.14
2018-04-02T05:17:13.173Z,97795.61
2018-04-02T05:19:42.195Z,97796.39
2018-04-02T05:22:10.462Z,97795.42
2018-04-02T05:24:38.713Z,97802.94
2018-04-02T05:27:07.733Z,97798.17
2018-04-02T05:29:35.982Z,97797.75
2018-04-02T05:32:05.009Z,97799.88
2018-04-02T05:34:33.260Z,97798.94
2018-04-02T05:37:01.529Z,97790.67
2018-04-02T05:39:30.536Z,97791.09
2018-04-02T05:41:58.802Z,97789.66
2018-04-02T05:44:27.070Z,97791.15
2018-04-02T05:46:55.322Z,97798.00
2018-04-02T05:49:23.582Z,97801.61
2018-04-02T05:51:51.835Z,97799.63
2018-04-02T05:54:20.086Z,97804.47
2018-04-02T05:56:48.345Z,97803.21
2018-04-02T05:59:17.368Z,97799.97
2018-04-02T06:01:45.621Z,97804.63
2018-04-02T06:04:13.875Z,97806.77
2018-04-02T06:06:42.127Z,97807.38
2018-04-02T06:09:10.385Z,97803.74
2018-04-02T06:11:38.638Z,97805.52
2018-04-02T06:14:06.902Z,97804.83
2018-04-02T06:16:35.171Z,97802.39
2018-04-02T06:19:03.419Z,97804.91
2018-04-02T06:21:31.671Z,97804.12
2018-04-02T06:23:59.930Z,97809.97
2018-04-02T06:26:28.182Z,97809.20
2018-04-02T06:28:57.202Z,97810.08
2018-04-02T06:31:25.461Z,97812.17
2018-04-02T06:33:53.725Z,97817.39
2018-04-02T06:36:21.981Z,97816.30
2018-04-02T06:38:51.009Z,97812.17
2018-04-02T06:41:19.263Z,97819.06
2018-04-02T06:43:48.277Z,97813.89
2018-04-02T06:46:16.519Z,97815.05
2018-04-02T06:48:44.773Z,97815.45
2018-04-02T06:51:13.023Z,97812.59
2018-04-02T06:53:41.273Z,97807.84
2018-04-02T06:56:09.863Z,97808.98
2018-04-02T06:58:38.106Z,97806.94
2018-04-02T07:01:06.361Z,97806.19
2018-04-02T07:03:34.614Z,97802.25
2018-04-02T07:06:02.865Z,97807.24
2018-04-02T07:08:31.115Z,97807.62
2018-04-02T07:11:00.298Z,97810.34
2018-04-02T07:13:28.505Z,97807.66
2018-04-02T07:15:56.759Z,97805.41
2018-04-02T07:18:25.772Z,97810.94
2018-04-02T07:20:54.024Z,97808.36
2018-04-02T07:23:23.034Z,97805.82
2018-04-02T07:25:52.057Z,97805.13
2018-04-02T07:28:20.305Z,97804.95
2018-04-02T07:30:48.561Z,97810.19
2018-04-02T07:33:17.578Z,97802.83
2018-04-02T07:35:45.833Z,97806.39
2018-04-02T07:38:14.841Z,97794.34
2018-04-02T07:40:43.869Z,97804.71
2018-04-02T07:43:12.117Z,97798.41
2018-04-02T07:45:40.372Z,97791.08
2018-04-02T07:48:09.390Z,97791.20
2018-04-02T07:50:37.660Z,97792.93
2018-04-02T07:53:06.665Z,97790.46
2018-04-02T07:55:34.914Z,97785.47
2018-04-02T07:58:03.926Z,97787.00
2018-04-02T08:00:32.171Z,97791.33
2018-04-02T08:03:00.491Z,97792.53
2018-04-02T08:05:28.672Z,97797.02
2018-04-02T08:07:56.923Z,97787.59
2018-04-02T08:10:25.209Z,97790.27
2018-04-02T08:12:53.458Z,97791.84
2018-04-02T08:15:22.479Z,97791.13
2018-04-02T08:17:50.735Z,97794.31
2018-04-02T08:20:19.740Z,97782.90
2018-04-02T08:22:47.990Z,97789.09
2018-04-02T08:25:17.054Z,97789.94
2018-04-02T08:27:46.014Z,97786.81
2018-04-02T08:30:14.270Z,97787.39
2018-04-02T08:32:42.573Z,97787.02
2018-04-02T08:35:10.765Z,97781.50
2018-04-02T08:37:39.032Z,97779.51
2018-04-02T08:40:07.278Z,97778.69
2018-04-02T08:42:35.513Z,97779.53
2018-04-02T08:45:03.766Z,97780.42
2018-04-02T08:47:32.010Z,97782.83
2018-04-02T08:50:00.273Z,97778.61
2018-04-02T08:52:28.534Z,97784.08
2018-04-02T08:54:57.569Z,97779.95
2018-04-02T08:57:25.809Z,97779.59
2018-04-02T08:59:54.833Z,97782.98
2018-04-02T09:02:23.077Z,97768.25
2018-04-02T09:04:52.099Z,97764.09
2018-04-02T09:07:20.334Z,97765.73
2018-04-02T09:09:49.361Z,97767.05
2018-04-02T09:12:17.598Z,97758.16
2018-04-02T09:14:45.850Z,97756.92
2018-04-02T09:17:14.093Z,97761.14
2018-04-02T09:19:42.341Z,97757.80
2018-04-02T09:22:11.346Z,97746.81
2018-04-02T09:24:39.594Z,97749.72
2018-04-02T09:27:07.833Z,97747.27
2018-04-02T09:29:36.086Z,97748.08
2018-04-02T09:32:04.366Z,97740.06
2018-04-02T09:34:33.346Z,97726.08
2018-04-02T09:37:01.593Z,97724.25
2018-04-02T09:39:30.614Z,97725.08
2018-04-02T09:41:58.856Z,97726.55
2018-04-02T09:44:27.874Z,97718.08
2018-04-02T09:46:56.127Z,97709.24
2018-04-02T09:49:24.362Z,97707.09
2018-04-02T09:51:52.607Z,97706.57
2018-04-02T09:54:20.862Z,97695.36
2018-04-02T09:56:49.873Z,97685.00
2018-04-02T09:59:18.157Z,97690.55
2018-04-02T10:01:46.372Z,97684.73
2018-04-02T10:04:14.612Z,97683.55
2018-04-02T10:06:42.852Z,97681.53
2018-04-02T10:09:11.865Z,97664.46
2018-04-02T10:11:40.117Z,97673.74
2018-04-02T10:14:09.124Z,97665.70
2018-04-02T10:16:37.381Z,97661.94
2018-04-02T10:19:05.620Z,97663.65
2018-04-02T10:21:33.875Z,97661.91
2018-04-02T10:24:02.164Z,97650.93
2018-04-02T10:26:31.135Z,97651.34
2018-04-02T10:28:59.380Z,97648.78
2018-04-02T10:31:28.422Z,97647.93
2018-04-02T10:33:56.663Z,97647.27
2018-04-02T10:36:25.674Z,97646.34
2018-04-02T10:38:53.930Z,97640.23
2018-04-02T10:41:22.947Z,97637.03
2018-04-02T10:43:51.204Z,97636.85
2018-04-02T10:46:19.452Z,97633.80
2018-04-02T10:48:47.699Z,97620.47
2018-04-02T10:51:15.940Z,97626.08
2018-04-02T10:53:44.212Z,97618.92
2018-04-02T10:56:12.461Z,97617.80
2018-04-02T10:58:41.483Z,97615.66
2018-04-02T11:01:09.729Z,97615.27
2018-04-02T11:03:38.762Z,97601.91
2018-04-02T11:06:07.018Z,97607.11
2018-04-02T11:08:36.029Z,97603.22
2018-04-02T11:11:04.282Z,97598.68
2018-04-02T11:13:33.293Z,97603.06
2018-04-02T11:16:01.533Z,97599.38
2018-04-02T11:18:29.793Z,97594.22
2018-04-02T11:20:58.034Z,97579.81
2018-04-02T11:23:26.293Z,97569.61
2018-04-02T11:25:54.536Z,97572.51
2018-04-02T11:28:22.782Z,97572.36
2018-04-02T11:30:51.032Z,97574.43
2018-04-02T11:33:19.271Z,97567.12
2018-04-02T11:35:48.296Z,97569.01
2018-04-02T11:38:16.538Z,97554.99
2018-04-02T11:40:45.553Z,97550.31
2018-04-02T11:43:13.798Z,97537.50
2018-04-02T11:45:42.049Z,97534.75
2018-04-02T11:48:10.352Z,97540.72
2018-04-02T11:50:38.537Z,97526.36
2018-04-02T11:53:07.555Z,97519.99
2018-04-02T11:55:35.809Z,97527.20
2018-04-02T11:58:04.817Z,97509.66
2018-04-02T12:00:33.070Z,97511.36
2018-04-02T12:03:02.087Z,97501.09
2018-04-02T12:05:30.350Z,97503.67
2018-04-02T12:07:59.362Z,97490.53
2018-04-02T12:10:27.605Z,97496.03
2018-04-02T12:12:56.613Z,97491.56
2018-04-02T12:15:25.634Z,97486.54
2018-04-02T12:17:53.878Z,97490.94
2018-04-02T12:20:22.900Z,97483.69
2018-04-02T12:22:51.158Z,97485.81
2018-04-02T12:25:19.404Z,97479.24
2018-04-02T12:27:47.644Z,97472.77
2018-04-02T12:30:15.900Z,97467.52
2018-04-02T12:32:44.149Z,97454.94
2018-04-02T12:35:13.162Z,97461.92
2018-04-02T12:37:41.417Z,97457.16
2018-04-02T12:40:10.438Z,97459.52
2018-04-02T12:42:38.689Z,97458.31
2018-04-02T12:45:07.701Z,97445.77
2018-04-02T12:47:35.954Z,97449.23
2018-04-02T12:50:04.958Z,97447.29
2018-04-02T12:52:33.213Z,97439.13
2018-04-02T12:55:02.226Z,97425.01
2018-04-02T12:57:30.477Z,97429.27
2018-04-02T12:59:59.491Z,97422.45
2018-04-02T13:02:28.502Z,97422.18
2018-04-02T13:04:56.745Z,97420.89
2018-04-02T13:07:25.758Z,97411.72
2018-04-02T13:09:54.004Z,97418.39
2018-04-02T13:12:22.257Z,97415.16
2018-04-02T13:14:50.505Z,97405.45
2018-04-02T13:17:18.750Z,97406.42
2018-04-02T13:19:47.759Z,97397.30
2018-04-02T13:22:16.006Z,97392.17
2018-04-02T13:24:45.059Z,97399.32
2018-04-02T13:27:13.266Z,97388.91
2018-04-02T13:29:41.515Z,97389.56
2018-04-02T13:32:09.761Z,97394.73
2018-04-02T13:34:38.010Z,97383.50
2018-04-02T13:37:07.014Z,97382.18
2018-04-02T13:39:35.275Z,97373.34
2018-04-02T13:42:04.289Z,97383.53
2018-04-02T13:44:32.545Z,97383.63
2018-04-02T13:47:01.558Z,97382.00
2018-04-02T13:49:29.814Z,97360.59
2018-04-02T13:51:58.826Z,97365.52
2018-04-02T13:54:27.071Z,97352.91
2018-04-02T13:56:56.080Z,97351.19
2018-04-02T13:59:25.101Z,97358.91
2018-04-02T14:01:53.373Z,97351.59
2018-04-02T14:04:21.616Z,97359.61
2018-04-02T14:06:50.627Z,97361.84
2018-04-02T14:09:18.881Z,97355.34
2018-04-02T14:11:47.889Z,97356.11
2018-04-02T14:14:16.142Z,97346.23
2018-04-02T14:16:44.382Z,97337.05
2018-04-02T14:19:12.626Z,97327.98
2018-04-02T14:21:40.864Z,97335.09
2018-04-02T14:24:09.121Z,97320.23
2018-04-02T14:26:37.365Z,97314.01
2018-04-02T14:29:05.609Z,97306.84
2018-04-02T14:31:34.659Z,97302.45
2018-04-02T14:34:02.861Z,97295.00
2018-04-02T14:36:31.120Z,97285.22
2018-04-02T14:38:59.414Z,97280.29
2018-04-02T14:41:27.610Z,97278.52
2018-04-02T14:43:55.857Z,97280.99
2018-04-02T14:46:24.111Z,97280.92
2018-04-02T14:48:52.345Z,97280.52
2018-04-02T14:51:20.603Z,97272.09
2018-04-02T14:53:49.617Z,97276.80
2018-04-02T14:56:17.923Z,97268.47
2018-04-02T14:58:46.109Z,97276.77
2018-04-02T15:01:14.358Z,97264.02
2018-04-02T15:03:42.606Z,97263.89
2018-04-02T15:06:11.573Z,97260.39
2018-04-02T15:08:39.817Z,97258.50
2018-04-02T15:11:08.072Z,97250.25
2018-04-02T15:13:36.310Z,97256.25
2018-04-02T15:16:05.330Z,97249.27
2018-04-02T15:18:34.390Z,97247.69
2018-04-02T15:21:03.408Z,97253.39
2018-04-02T15:23:31.649Z,97240.80
2018-04-02T15:25:59.881Z,97240.66
2018-04-02T15:28:28.132Z,97231.80
2018-04-02T15:30:56.373Z,97230.75
2018-04-02T15:33:24.624Z,97229.92
2018-04-02T15:35:52.866Z,97218.87
2018-04-02T15:38:21.116Z,97220.92
2018-04-02T15:40:50.142Z,97216.81
2018-04-02T15:43:18.391Z,97220.50
2018-04-02T15:45:47.445Z,97219.44
2018-04-02T15:48:15.702Z,97223.12
2018-04-02T15:50:43.941Z,97215.95
2018-04-02T15:53:12.197Z,97219.26
2018-04-02T15:55:41.204Z,97211.55
2018-04-02T15:58:10.227Z,97211.13
2018-04-02T16:00:38.476Z,97204.57
2018-04-02T16:03:07.550Z,97214.92
2018-04-02T16:05:35.726Z,97205.50
2018-04-02T16:08:03.989Z,97199.82
2018-04-02T16:10:32.224Z,97189.25
2018-04-02T16:13:00.477Z,97191.61
2018-04-02T16:15:28.729Z,97183.61
2018-04-02T16:17:57.734Z,97185.20
2018-04-02T16:20:26.746Z,97176.73
2018-04-02T16:22:54.985Z,97178.97
2018-04-02T16:25:23.233Z,97180.87
2018-04-02T16:27:51.485Z,97173.97
2018-04-02T16:30:19.730Z,97169.45
2018-04-02T16:32:48.773Z,97174.90
2018-04-02T16:35:17.030Z,97161.61
2018-04-02T16:37:45.274Z,97157.58
2018-04-02T16:40:14.288Z,97147.11
2018-04-02T16:42:42.533Z,97158.61
2018-04-02T16:45:11.545Z,97161.41
2018-04-02T16:47:39.789Z,97153.10
2018-04-02T16:50:08.041Z,97150.76
2018-04-02T16:52:36.277Z,97144.02
2018-04-02T16:55:04.539Z,97143.35
2018-04-02T16:57:33.545Z,97141.07
2018-04-02T17:00:01.794Z,97140.48
2018-04-02T17:02:30.810Z,97137.04
2018-04-02T17:04:59.059Z,97137.47
2018-04-02T17:07:27.297Z,97132.02
2018-04-02T17:09:55.554Z,97135.56
2018-04-02T17:12:23.785Z,97132.60
2018-04-02T17:14:52.805Z,97129.06
2018-04-02T17:17:21.054Z,97124.23
2018-04-02T17:19:50.067Z,97119.33
2018-04-02T17:22:18.318Z,97115.06
2018-04-02T17:24:47.333Z,97126.79
2018-04-02T17:27:15.593Z,97128.15
2018-04-02T17:29:44.601Z,97123.62
2018-04-02T17:32:12.859Z,97119.10
2018-04-02T17:34:41.866Z,97117.83
2018-04-02T17:37:10.876Z,97124.87
2018-04-02T17:39:39.129Z,97126.20
2018-04-02T17:42:08.154Z,97126.29
2018-04-02T17:47:11.028Z,97130.16
2018-04-02T17:49:40.046Z,97129.83
2018-04-02T17:52:08.297Z,97129.56
2018-04-02T17:54:37.309Z,97127.94
2018-04-02T17:57:05.560Z,97134.78
2018-04-02T17:59:33.817Z,97134.93
2018-04-02T18:02:02.079Z,97130.70
2018-04-02T18:04:30.322Z,97118.50
2018-04-02T18:06:58.577Z,97128.98
2018-04-02T18:09:26.824Z,97128.60
2018-04-02T18:11:55.089Z,97121.53
2018-04-02T18:14:23.339Z,97122.39
2018-04-02T18:16:51.598Z,97119.16
2018-04-02T18:19:19.841Z,97111.51
2018-04-02T18:21:48.861Z,97116.51
2018-04-02T18:24:17.113Z,97113.61
2018-04-02T18:26:45.395Z,97111.59
2018-04-02T18:29:13.643Z,97109.58
2018-04-02T18:31:41.894Z,97106.30
2018-04-02T18:34:10.141Z,97100.38
2018-04-02T18:36:38.390Z,97099.20
2018-04-02T18:39:07.406Z,97095.00
2018-04-02T18:41:35.650Z,97092.13
2018-04-02T18:44:04.674Z,97096.90
2018-04-02T18:46:32.927Z,97094.83
2018-04-02T18:49:01.953Z,97088.53
2018-04-02T18:51:30.198Z,97085.49
2018-04-02T18:53:58.454Z,97088.48
2018-04-02T18:56:27.465Z,97089.80
2018-04-02T18:58:55.717Z,97089.05
2018-04-02T19:01:24.736Z,97086.76
2018-04-02T19:03:53.013Z,97087.27
2018-04-02T19:06:21.266Z,97086.09
2018-04-02T19:08:49.513Z,97069.25
2018-04-02T19:11:17.773Z,97071.24
2018-04-02T19:13:46.016Z,97074.09
2018-04-02T19:16:14.274Z,97077.98
2018-04-02T19:18:43.297Z,97072.10
2018-04-02T19:21:11.560Z,97069.66
2018-04-02T19:23:39.806Z,97063.31
2018-04-02T19:26:08.060Z,97063.66
2018-04-02T19:28:36.313Z,97064.51
2018-04-02T19:31:04.574Z,97059.06
2018-04-02T19:33:32.815Z,97058.13
2018-04-02T19:36:01.843Z,97053.59
2018-04-02T19:38:30.107Z,97050.59
2018-04-02T19:40:58.378Z,97054.89
2018-04-02T19:43:27.385Z,97046.06
2018-04-02T19:45:55.650Z,97040.94
2018-04-02T19:48:24.656Z,97039.20
2018-04-02T19:50:52.918Z,97043.37
2018-04-02T19:53:21.165Z,97040.11
2018-04-02T19:55:49.422Z,97040.13
2018-04-02T19:58:17.669Z,97037.23
2018-04-02T20:00:45.934Z,97031.30
2018-04-02T20:03:14.190Z,97029.59
2018-04-02T20:05:43.217Z,97038.50
2018-04-02T20:08:11.468Z,97033.61
2018-04-02T20:10:39.715Z,97038.98
2018-04-02T20:13:07.970Z,97038.22
2018-04-02T20:15:36.227Z,97033.19
2018-04-02T20:18:04.486Z,97018.77
2018-04-02T20:20:33.612Z,97022.21
2018-04-02T20:23:01.896Z,97016.75
2018-04-02T20:25:30.851Z,97006.55
2018-04-02T20:27:59.117Z,97005.43
2018-04-02T20:30:27.376Z,97004.58
2018-04-02T20:32:56.407Z,97000.88
2018-04-02T20:35:24.666Z,96999.66
2018-04-02T20:37:52.929Z,97006.91
2018-04-02T20:40:21.182Z,97016.81
2018-04-02T20:42:50.210Z,97007.04
2018-04-02T20:45:18.456Z,97013.02
2018-04-02T20:47:47.481Z,97015.11
2018-04-02T20:50:15.733Z,97016.48
2018-04-02T20:52:44.766Z,97019.55
2018-04-02T20:55:13.021Z,97025.89
2018-04-02T20:57:41.278Z,97028.21
2018-04-02T21:00:10.339Z,97024.88
2018-04-02T21:02:38.562Z,97028.67
2018-04-02T21:05:06.815Z,97022.84
2018-04-02T21:07:35.840Z,97023.19
2018-04-02T21:10:04.097Z,97023.53
2018-04-02T21:12:32.358Z,97022.92
2018-04-02T21:15:01.379Z,97026.75
2018-04-02T21:17:29.638Z,97023.80
2018-04-02T21:19:58.661Z,97028.44
2018-04-02T21:22:26.922Z,97025.88
2018-04-02T21:24:55.177Z,97031.33
2018-04-02T21:27:24.198Z,97028.45
2018-04-02T21:29:52.501Z,97026.28
2018-04-02T21:32:20.721Z,97028.87
2018-04-02T21:34:49.745Z,97028.09
2018-04-02T21:37:18.004Z,97019.75
2018-04-02T21:39:46.284Z,97024.78
2018-04-02T21:42:14.545Z,97013.05
2018-04-02T21:44:43.566Z,97002.80
2018-04-02T21:47:11.825Z,96989.11
2018-04-02T21:49:40.097Z,96991.61
2018-04-02T21:52:09.113Z,96998.07
2018-04-02T21:54:37.382Z,96998.14
2018-04-02T21:57:05.630Z,96992.76
2018-04-02T21:59:34.670Z,96987.69
2018-04-02T22:02:02.929Z,96989.81
2018-04-02T22:04:31.194Z,96994.54
2018-04-02T22:07:06.309Z,96993.41
2018-04-02T22:09:34.572Z,96988.69
2018-04-02T22:12:02.843Z,96989.23
2018-04-02T22:14:31.101Z,96987.69
2018-04-02T22:16:59.353Z,96994.38
2018-04-02T22:19:27.611Z,96996.91
2018-04-02T22:21:56.626Z,96994.34
2018-04-02T22:24:24.909Z,96991.66
2018-04-02T22:26:53.154Z,96999.05
2018-04-02T22:29:22.177Z,97005.31
2018-04-02T22:31:50.437Z,96995.34
2018-04-02T22:34:19.516Z,97001.66
2018-04-02T22:36:48.546Z,97004.27
2018-04-02T22:39:16.788Z,97010.84
2018-04-02T22:41:45.816Z,97012.61
2018-04-02T22:44:14.069Z,97021.21
2018-04-02T22:46:43.189Z,97024.97
2018-04-02T22:49:11.438Z,97016.97
2018-04-02T22:51:40.470Z,97024.66
2018-04-02T22:54:08.769Z,97025.64
2018-04-02T22:56:37.027Z,97031.84
2018-04-02T22:59:05.282Z,97031.36
2018-04-02T23:01:34.297Z,97030.35
2018-04-02T23:04:02.545Z,97038.20
2018-04-02T23:06:31.566Z,97038.94
2018-04-02T23:08:59.814Z,97040.36
2018-04-02T23:11:28.838Z,97030.55
2018-04-02T23:13:57.085Z,97028.73
2018-04-02T23:16:26.094Z,97031.70
2018-04-02T23:18:54.342Z,97034.23
2018-04-02T23:21:23.350Z,97026.42
2018-04-02T23:23:51.599Z,97018.35
2018-04-02T23:26:19.846Z,97009.52
2018-04-02T23:28:48.102Z,96998.93
2018-04-02T23:31:16.349Z,97008.05
2018-04-02T23:33:45.374Z,96992.45
2018-04-02T23:36:13.622Z,96964.81
2018-04-02T23:38:41.874Z,96969.28
2018-04-02T23:41:10.116Z,96963.69
2018-04-02T23:43:38.380Z,96978.14
2018-04-02T23:46:06.626Z,96975.96
2018-04-02T23:48:34.877Z,96978.23
2018-04-02T23:51:03.913Z,96980.89
2018-04-02T23:53:32.264Z,96980.38
2018-04-02T23:56:00.614Z,96975.05
2018-04-02T23:58:29.730Z,96975.50
